createdAt,value
2022-10-01T00:02:28.016Z,98373.94
2022-10-01T00:05:14.860Z,98380.31
2022-10-01T00:08:01.625Z,98381.03
2022-10-01T00:10:48.434Z,98364.09
2022-10-01T00:13:36.364Z,98366.28
2022-10-01T00:16:25.614Z,98372.09
2022-10-01T00:19:14.736Z,98377.03
2022-10-01T00:22:01.713Z,98382.63
2022-10-01T00:24:49.395Z,98394.91
2022-10-01T00:27:36.595Z,98386.09
2022-10-01T00:30:23.348Z,98391.06
2022-10-01T00:33:10.135Z,98388.94
2022-10-01T00:35:56.966Z,98386.53
2022-10-01T00:38:44.417Z,98387.97
2022-10-01T00:41:34.779Z,98386.56
2022-10-01T00:44:36.961Z,98388.59
2022-10-01T00:47:46.916Z,98378.72
2022-10-01T00:50:34.959Z,98380.53
2022-10-01T00:53:22.247Z,98383.03
2022-10-01T00:56:09.031Z,98377.25
2022-10-01T00:58:56.068Z,98376.53
2022-10-01T01:01:43.109Z,98365.19
2022-10-01T01:04:29.951Z,98369.66
2022-10-01T01:07:16.918Z,98359.44
2022-10-01T01:10:05.192Z,98353.66
2022-10-01T01:13:11.793Z,98359.75
2022-10-01T01:16:09.125Z,98350.97
2022-10-01T01:19:02.595Z,98354.59
2022-10-01T01:21:55.436Z,98347.78
2022-10-01T01:24:49.886Z,98337.72
2022-10-01T01:27:42.358Z,98338.47
2022-10-01T01:30:32.846Z,98332.38
2022-10-01T01:33:26.354Z,98324.19
2022-10-01T01:36:18.536Z,98315.72
2022-10-01T01:39:09.817Z,98322.31
2022-10-01T01:42:01.000Z,98330.44
2022-10-01T01:44:49.827Z,98327.41
2022-10-01T01:47:42.084Z,98336.69
2022-10-01T01:50:38.278Z,98333.19
2022-10-01T01:53:26.152Z,98330.88
2022-10-01T01:56:14.110Z,98326.53
2022-10-01T01:59:01.125Z,98333.16
2022-10-01T02:01:49.334Z,98327.03
2022-10-01T02:04:49.206Z,98329.75
2022-10-01T02:07:46.111Z,98328.69
2022-10-01T02:10:59.331Z,98332.34
2022-10-01T02:14:00.025Z,98310.22
2022-10-01T02:16:56.206Z,98311.97
2022-10-01T02:19:56.243Z,98311.69
2022-10-01T02:22:52.753Z,98304.44
2022-10-01T02:25:48.443Z,98293.53
2022-10-01T02:28:39.272Z,98290.41
2022-10-01T02:31:30.473Z,98282.84
2022-10-01T02:34:01.083Z,98278.84
2022-10-01T02:36:30.759Z,98280.03
2022-10-01T02:39:00.362Z,98279.13
2022-10-01T02:41:33.424Z,98276.50
2022-10-01T02:44:11.636Z,98272.16
2022-10-01T02:46:51.647Z,98279.81
2022-10-01T02:49:18.739Z,98276.59
2022-10-01T02:51:56.314Z,98270.72
2022-10-01T02:54:29.497Z,98269.47
2022-10-01T02:57:15.374Z,98280.53
2022-10-01T02:59:41.890Z,98282.47
2022-10-01T03:02:11.236Z,98287.66
2022-10-01T03:04:38.432Z,98286.47
2022-10-01T03:07:07.423Z,98279.84
2022-10-01T03:09:35.035Z,98289.00
2022-10-01T03:12:01.833Z,98284.06
2022-10-01T03:14:32.305Z,98274.56
2022-10-01T03:16:58.770Z,98286.81
2022-10-01T03:19:25.415Z,98288.06
2022-10-01T03:21:51.875Z,98270.91
2022-10-01T03:24:18.368Z,98271.75
2022-10-01T03:26:45.170Z,98264.16
2022-10-01T03:29:15.066Z,98263.94
2022-10-01T03:31:41.580Z,98255.63
2022-10-01T03:34:13.235Z,98264.53
2022-10-01T03:36:39.717Z,98257.00
2022-10-01T03:39:06.227Z,98256.09
2022-10-01T03:41:33.840Z,98261.31
2022-10-01T03:44:02.999Z,98250.84
2022-10-01T03:46:30.510Z,98253.03
2022-10-01T03:49:00.859Z,98257.28
2022-10-01T03:51:29.210Z,98248.19
2022-10-01T03:53:57.316Z,98244.34
2022-10-01T03:56:24.706Z,98241.59
2022-10-01T03:58:51.597Z,98246.38
2022-10-01T04:01:22.842Z,98237.88
2022-10-01T04:03:50.253Z,98227.88
2022-10-01T04:06:21.406Z,98228.56
2022-10-01T04:08:48.156Z,98221.50
2022-10-01T04:11:17.118Z,98217.06
2022-10-01T04:13:43.604Z,98220.97
2022-10-01T04:16:12.639Z,98215.47
2022-10-01T04:18:39.338Z,98218.47
2022-10-01T04:21:05.934Z,98219.59
2022-10-01T04:23:32.380Z,98216.00
2022-10-01T04:26:02.316Z,98212.41
2022-10-01T04:28:30.483Z,98214.31
2022-10-01T04:31:17.222Z,98209.75
2022-10-01T04:33:44.052Z,98220.69
2022-10-01T04:36:10.573Z,98220.69
2022-10-01T04:38:37.026Z,98225.75
2022-10-01T04:41:03.532Z,98217.31
2022-10-01T04:43:29.937Z,98218.19
2022-10-01T04:45:58.777Z,98208.16
2022-10-01T04:48:25.193Z,98216.72
2022-10-01T04:50:51.876Z,98206.84
2022-10-01T04:53:18.586Z,98218.75
2022-10-01T04:55:47.110Z,98215.88
2022-10-01T04:58:13.649Z,98222.53
2022-10-01T05:00:43.296Z,98233.97
2022-10-01T05:03:12.132Z,98243.31
2022-10-01T05:05:38.896Z,98248.63
2022-10-01T05:08:08.572Z,98234.53
2022-10-01T05:10:37.379Z,98240.31
2022-10-01T05:13:03.798Z,98239.34
2022-10-01T05:15:30.807Z,98227.56
2022-10-01T05:17:57.500Z,98226.72
2022-10-01T05:20:26.095Z,98229.00
2022-10-01T05:22:56.369Z,98224.44
2022-10-01T05:25:23.200Z,98223.94
2022-10-01T05:27:51.887Z,98221.16
2022-10-01T05:30:23.827Z,98222.59
2022-10-01T05:32:56.002Z,98224.75
2022-10-01T05:35:22.466Z,98227.41
2022-10-01T05:37:58.558Z,98226.00
2022-10-01T05:40:27.515Z,98235.00
2022-10-01T05:42:55.638Z,98245.34
2022-10-01T05:45:25.277Z,98238.47
2022-10-01T05:48:06.030Z,98237.38
2022-10-01T05:50:39.109Z,98236.97
2022-10-01T05:53:06.673Z,98238.78
2022-10-01T05:55:36.719Z,98230.00
2022-10-01T05:58:05.709Z,98224.13
2022-10-01T06:00:34.072Z,98223.03
2022-10-01T06:03:02.291Z,98215.53
2022-10-01T06:05:32.599Z,98210.88
2022-10-01T06:07:59.333Z,98205.41
2022-10-01T06:10:28.104Z,98211.97
2022-10-01T06:13:01.011Z,98205.94
2022-10-01T06:15:31.797Z,98199.38
2022-10-01T06:18:02.114Z,98184.78
2022-10-01T06:20:28.578Z,98191.03
2022-10-01T06:22:56.933Z,98185.28
2022-10-01T06:25:29.587Z,98188.41
2022-10-01T06:27:57.935Z,98175.03
2022-10-01T06:30:27.147Z,98172.06
2022-10-01T06:32:59.308Z,98166.94
2022-10-01T06:35:25.757Z,98175.03
2022-10-01T06:37:52.187Z,98167.63
2022-10-01T06:40:18.595Z,98173.50
2022-10-01T06:42:50.284Z,98175.69
2022-10-01T06:45:18.115Z,98172.06
2022-10-01T06:47:44.933Z,98176.59
2022-10-01T06:50:11.560Z,98175.31
2022-10-01T06:52:49.846Z,98171.97
2022-10-01T06:55:20.368Z,98187.41
2022-10-01T06:57:47.530Z,98179.13
2022-10-01T07:00:14.936Z,98187.41
2022-10-01T07:02:42.541Z,98182.66
2022-10-01T07:05:12.454Z,98179.22
2022-10-01T07:07:39.102Z,98171.31
2022-10-01T07:10:08.335Z,98174.78
2022-10-01T07:12:36.008Z,98172.91
2022-10-01T07:15:02.760Z,98170.00
2022-10-01T07:17:29.207Z,98177.50
2022-10-01T07:19:55.629Z,98184.66
2022-10-01T07:22:24.099Z,98173.91
2022-10-01T07:24:51.519Z,98171.97
2022-10-01T07:27:19.709Z,98169.50
2022-10-01T07:29:48.395Z,98163.84
2022-10-01T07:32:15.696Z,98156.84
2022-10-01T07:34:42.456Z,98175.63
2022-10-01T07:37:09.766Z,98175.94
2022-10-01T07:39:39.670Z,98178.28
2022-10-01T07:42:06.550Z,98182.38
2022-10-01T07:44:33.154Z,98178.41
2022-10-01T07:47:02.700Z,98183.13
2022-10-01T07:49:31.360Z,98173.41
2022-10-01T07:52:00.032Z,98179.34
2022-10-01T07:54:26.711Z,98176.06
2022-10-01T07:56:56.454Z,98180.84
2022-10-01T07:59:23.419Z,98179.19
2022-10-01T08:01:53.517Z,98187.63
2022-10-01T08:04:41.715Z,98182.38
2022-10-01T08:07:08.669Z,98180.09
2022-10-01T08:09:35.532Z,98174.97
2022-10-01T08:12:04.821Z,98179.78
2022-10-01T08:14:33.561Z,98171.09
2022-10-01T08:17:04.986Z,98185.34
2022-10-01T08:19:31.737Z,98184.78
2022-10-01T08:21:58.175Z,98180.75
2022-10-01T08:24:24.867Z,98183.41
2022-10-01T08:26:56.339Z,98179.09
2022-10-01T08:29:22.886Z,98164.09
2022-10-01T08:31:50.126Z,98160.91
2022-10-01T08:34:16.752Z,98153.97
2022-10-01T08:36:43.213Z,98156.00
2022-10-01T08:39:10.951Z,98156.06
2022-10-01T08:41:55.983Z,98152.09
2022-10-01T08:44:44.227Z,98148.88
2022-10-01T08:47:17.089Z,98142.22
2022-10-01T08:49:51.667Z,98143.75
2022-10-01T08:52:44.144Z,98135.53
2022-10-01T08:55:18.527Z,98135.66
2022-10-01T08:57:53.369Z,98139.63
2022-10-01T09:00:20.090Z,98130.13
2022-10-01T09:02:47.725Z,98136.91
2022-10-01T09:05:23.546Z,98131.50
2022-10-01T09:08:05.129Z,98130.28
2022-10-01T09:10:49.484Z,98119.22
2022-10-01T09:13:30.877Z,98116.28
2022-10-01T09:16:24.129Z,98105.44
2022-10-01T09:19:18.620Z,98104.56
2022-10-01T09:21:55.578Z,98094.66
2022-10-01T09:24:25.727Z,98095.50
2022-10-01T09:26:57.073Z,98079.44
2022-10-01T09:29:29.885Z,98068.13
2022-10-01T09:31:58.612Z,98075.25
2022-10-01T09:34:44.748Z,98068.00
2022-10-01T09:37:18.158Z,98065.69
2022-10-01T09:40:05.785Z,98055.88
2022-10-01T09:42:32.546Z,98060.94
2022-10-01T09:44:59.536Z,98054.06
2022-10-01T09:47:26.492Z,98053.88
2022-10-01T09:49:53.000Z,98044.00
2022-10-01T09:52:28.210Z,98045.53
2022-10-01T09:55:34.044Z,98044.56
2022-10-01T09:58:09.618Z,98043.56
2022-10-01T10:00:37.661Z,98031.97
2022-10-01T10:03:07.313Z,98031.97
2022-10-01T10:05:54.905Z,98031.69
2022-10-01T10:08:31.883Z,98028.47
2022-10-01T10:11:08.236Z,98031.69
2022-10-01T10:13:48.931Z,98022.69
2022-10-01T10:16:30.041Z,98025.81
2022-10-01T10:19:02.163Z,98029.97
2022-10-01T10:21:34.743Z,98027.19
2022-10-01T10:24:04.266Z,98033.88
2022-10-01T10:26:51.367Z,98042.00
2022-10-01T10:29:30.419Z,98033.56
2022-10-01T10:32:03.491Z,98034.53
2022-10-01T10:34:34.343Z,98041.00
2022-10-01T10:37:05.631Z,98037.16
2022-10-01T10:39:39.440Z,98039.50
2022-10-01T10:42:07.364Z,98040.00
2022-10-01T10:44:39.693Z,98039.03
2022-10-01T10:47:13.513Z,98026.66
2022-10-01T10:50:06.893Z,98032.69
2022-10-01T10:52:36.154Z,98028.66
2022-10-01T10:55:28.866Z,98028.13
2022-10-01T10:57:57.988Z,98032.47
2022-10-01T11:00:26.321Z,98028.66
2022-10-01T11:02:58.139Z,98026.50
2022-10-01T11:05:29.974Z,98028.47
2022-10-01T11:07:59.776Z,98012.56
2022-10-01T11:10:44.564Z,98024.44
2022-10-01T11:13:33.414Z,98012.66
2022-10-01T11:16:44.101Z,98007.63
2022-10-01T11:19:13.462Z,97997.13
2022-10-01T11:21:56.627Z,97996.69
2022-10-01T11:25:01.053Z,98005.75
2022-10-01T11:27:45.097Z,98010.34
2022-10-01T11:30:27.567Z,98017.34
2022-10-01T11:33:31.777Z,98025.84
2022-10-01T11:36:45.648Z,98027.00
2022-10-01T11:39:17.643Z,98020.53
2022-10-01T11:41:49.750Z,98017.28
2022-10-01T11:44:24.235Z,98017.13
2022-10-01T11:46:54.227Z,98022.25
2022-10-01T11:49:35.510Z,98015.59
2022-10-01T11:52:18.888Z,98023.69
2022-10-01T11:54:56.362Z,98019.84
2022-10-01T11:57:42.319Z,98005.78
2022-10-01T12:00:12.907Z,98012.03
2022-10-01T12:02:52.555Z,98013.78
2022-10-01T12:05:24.672Z,98021.38
2022-10-01T12:08:01.537Z,98007.06
2022-10-01T12:10:39.198Z,98012.47
2022-10-01T12:13:22.637Z,98014.44
2022-10-01T12:15:55.165Z,98017.34
2022-10-01T12:18:32.951Z,98012.31
2022-10-01T12:21:03.738Z,98012.75
2022-10-01T12:23:43.963Z,98012.25
2022-10-01T12:26:41.286Z,98013.06
2022-10-01T12:29:16.940Z,98010.72
2022-10-01T12:31:57.028Z,98008.63
2022-10-01T12:34:53.868Z,98018.03
2022-10-01T12:37:39.393Z,98028.81
2022-10-01T12:40:38.426Z,98026.91
2022-10-01T12:43:27.523Z,98024.16
2022-10-01T12:46:21.009Z,98024.19
2022-10-01T12:48:57.894Z,98027.25
2022-10-01T12:51:44.596Z,98019.72
2022-10-01T12:54:55.533Z,98017.06
2022-10-01T12:57:47.488Z,98023.47
2022-10-01T13:00:20.446Z,98022.31
2022-10-01T13:03:05.674Z,98029.38
2022-10-01T13:05:38.393Z,98027.72
2022-10-01T13:08:17.221Z,98029.41
2022-10-01T13:10:43.635Z,98032.75
2022-10-01T13:13:22.015Z,98039.88
2022-10-01T13:16:12.736Z,98035.16
2022-10-01T13:19:14.433Z,98040.50
2022-10-01T13:21:47.022Z,98046.09
2022-10-01T13:24:44.283Z,98036.41
2022-10-01T13:27:27.014Z,98033.84
2022-10-01T13:30:20.596Z,98046.19
2022-10-01T13:33:01.070Z,98037.69
2022-10-01T13:35:39.771Z,98039.84
2022-10-01T13:38:30.978Z,98033.84
2022-10-01T13:41:01.336Z,98027.50
2022-10-01T13:43:30.270Z,98037.69
2022-10-01T13:46:07.040Z,98042.72
2022-10-01T13:48:35.818Z,98048.59
2022-10-01T13:51:07.120Z,98048.22
2022-10-01T13:53:40.880Z,98046.41
2022-10-01T13:56:09.340Z,98050.38
2022-10-01T13:58:41.236Z,98053.41
2022-10-01T14:01:32.508Z,98048.25
2022-10-01T14:04:15.873Z,98054.97
2022-10-01T14:06:50.236Z,98050.78
2022-10-01T14:09:23.174Z,98046.97
2022-10-01T14:12:14.485Z,98048.06
2022-10-01T14:15:07.569Z,98050.75
2022-10-01T14:17:36.140Z,98050.44
2022-10-01T14:20:03.316Z,98046.25
2022-10-01T14:22:44.710Z,98058.47
2022-10-01T14:25:20.820Z,98048.78
2022-10-01T14:27:56.540Z,98055.66
2022-10-01T14:31:08.551Z,98054.59
2022-10-01T14:33:46.992Z,98046.81
2022-10-01T14:36:18.718Z,98056.34
2022-10-01T14:38:45.585Z,98061.00
2022-10-01T14:41:19.877Z,98065.97
2022-10-01T14:43:46.647Z,98064.13
2022-10-01T14:46:17.238Z,98059.31
2022-10-01T14:48:44.702Z,98060.84
2022-10-01T14:51:24.558Z,98065.53
2022-10-01T14:53:52.584Z,98067.91
2022-10-01T14:56:20.382Z,98069.00
2022-10-01T14:58:53.144Z,98066.84
2022-10-01T15:01:21.452Z,98075.22
2022-10-01T15:03:49.494Z,98072.72
2022-10-01T15:09:12.435Z,98084.31
2022-10-01T15:11:46.578Z,98078.94
2022-10-01T15:14:18.975Z,98080.28
2022-10-01T15:16:45.946Z,98080.59
2022-10-01T15:19:16.319Z,98075.75
2022-10-01T15:21:54.863Z,98087.09
2022-10-01T15:24:42.222Z,98078.94
2022-10-01T15:27:15.597Z,98076.63
2022-10-01T15:29:51.535Z,98086.97
2022-10-01T15:32:23.580Z,98089.31
2022-10-01T15:34:54.732Z,98094.72
2022-10-01T15:37:37.952Z,98095.41
2022-10-01T15:40:19.908Z,98098.41
2022-10-01T15:43:07.279Z,98095.25
2022-10-01T15:45:34.564Z,98106.25
2022-10-01T15:48:03.527Z,98105.06
2022-10-01T15:50:36.358Z,98105.00
2022-10-01T15:53:10.067Z,98102.84
2022-10-01T15:55:47.599Z,98109.38
2022-10-01T15:58:21.282Z,98102.66
2022-10-01T16:00:48.611Z,98113.34
2022-10-01T16:03:23.250Z,98115.34
2022-10-01T16:05:54.837Z,98114.81
2022-10-01T16:08:25.457Z,98123.66
2022-10-01T16:11:31.882Z,98122.34
2022-10-01T16:14:31.905Z,98132.44
2022-10-01T16:17:16.647Z,98125.63
2022-10-01T16:19:43.827Z,98129.63
2022-10-01T16:22:19.246Z,98141.19
2022-10-01T16:24:48.727Z,98129.16
2022-10-01T16:27:46.182Z,98133.03
2022-10-01T16:30:26.901Z,98135.50
2022-10-01T16:33:02.359Z,98129.97
2022-10-01T16:35:35.942Z,98133.66
2022-10-01T16:38:09.027Z,98126.75
2022-10-01T16:40:43.711Z,98128.28
2022-10-01T16:43:19.831Z,98136.31
2022-10-01T16:45:46.434Z,98135.63
2022-10-01T16:48:19.512Z,98136.25
2022-10-01T16:50:53.592Z,98138.41
2022-10-01T16:53:20.177Z,98141.59
2022-10-01T16:55:47.096Z,98160.09
2022-10-01T16:58:16.929Z,98154.94
2022-10-01T17:00:48.271Z,98148.13
2022-10-01T17:03:18.052Z,98149.03
2022-10-01T17:06:03.800Z,98149.75
2022-10-01T17:08:50.633Z,98165.63
2022-10-01T17:11:38.792Z,98169.25
2022-10-01T17:14:25.642Z,98170.31
2022-10-01T17:17:12.393Z,98164.97
2022-10-01T17:19:59.176Z,98176.81
2022-10-01T17:22:46.096Z,98184.69
2022-10-01T17:25:35.695Z,98179.00
2022-10-01T17:28:23.907Z,98191.19
2022-10-01T17:31:15.547Z,98188.19
2022-10-01T17:34:05.010Z,98187.16
2022-10-01T17:36:51.809Z,98191.69
2022-10-01T17:39:39.522Z,98206.69
2022-10-01T17:42:26.292Z,98206.88
2022-10-01T17:45:14.302Z,98214.41
2022-10-01T17:48:01.600Z,98227.56
2022-10-01T17:50:48.443Z,98234.91
2022-10-01T17:53:42.128Z,98236.50
2022-10-01T17:56:32.453Z,98222.53
2022-10-01T17:59:22.200Z,98234.25
2022-10-01T18:02:36.655Z,98231.44
2022-10-01T18:05:19.434Z,98231.13
2022-10-01T18:08:06.180Z,98226.44
2022-10-01T18:11:08.851Z,98242.97
2022-10-01T18:13:55.840Z,98245.88
2022-10-01T18:16:42.723Z,98248.84
2022-10-01T18:19:52.881Z,98257.53
2022-10-01T18:22:37.983Z,98245.63
2022-10-01T18:25:25.199Z,98255.81
2022-10-01T18:28:12.063Z,98260.31
2022-10-01T18:31:11.245Z,98271.06
2022-10-01T18:34:00.966Z,98272.88
2022-10-01T18:37:14.661Z,98271.75
2022-10-01T18:40:12.455Z,98272.50
2022-10-01T18:43:20.769Z,98277.53
2022-10-01T18:46:22.858Z,98272.22
2022-10-01T18:49:31.448Z,98280.91
2022-10-01T18:52:34.898Z,98283.88
2022-10-01T18:55:48.605Z,98287.94
2022-10-01T18:59:01.371Z,98295.94
2022-10-01T19:02:12.921Z,98294.81
2022-10-01T19:05:18.771Z,98301.97
2022-10-01T19:08:42.179Z,98310.16
2022-10-01T19:11:34.347Z,98311.00
2022-10-01T19:14:39.890Z,98317.56
2022-10-01T19:18:03.216Z,98327.31
2022-10-01T19:21:13.855Z,98324.66
2022-10-01T19:24:19.085Z,98335.28
2022-10-01T19:27:42.306Z,98338.72
2022-10-01T19:31:01.637Z,98358.94
2022-10-01T19:34:32.125Z,98346.03
2022-10-01T19:37:36.590Z,98357.09
2022-10-01T19:40:30.120Z,98361.06
2022-10-01T19:43:33.154Z,98366.88
2022-10-01T19:46:26.474Z,98384.03
2022-10-01T19:49:17.259Z,98379.16
2022-10-01T19:52:12.395Z,98376.88
2022-10-01T19:55:00.697Z,98383.75
2022-10-01T19:57:47.747Z,98385.41
2022-10-01T20:00:34.640Z,98391.75
2022-10-01T20:03:31.920Z,98393.69
2022-10-01T20:06:30.568Z,98397.84
2022-10-01T20:09:17.499Z,98418.38
2022-10-01T20:12:17.022Z,98424.28
2022-10-01T20:15:45.200Z,98433.97
2022-10-01T20:18:38.502Z,98443.84
2022-10-01T20:21:46.694Z,98435.91
2022-10-01T20:24:43.282Z,98457.56
2022-10-01T20:27:47.083Z,98463.09
2022-10-01T20:31:05.305Z,98454.66
2022-10-01T20:34:10.236Z,98457.72
2022-10-01T20:37:11.718Z,98462.16
2022-10-01T20:40:07.462Z,98476.06
2022-10-01T20:43:05.971Z,98480.69
2022-10-01T20:45:53.925Z,98480.03
2022-10-01T20:48:52.326Z,98480.41
2022-10-01T20:51:52.931Z,98483.31
2022-10-01T20:54:46.114Z,98491.50
2022-10-01T20:57:38.913Z,98500.97
2022-10-01T21:00:28.079Z,98502.63
2022-10-01T21:03:26.080Z,98507.59
2022-10-01T21:06:26.479Z,98511.66
2022-10-01T21:09:28.506Z,98528.53
2022-10-01T21:12:24.893Z,98526.94
2022-10-01T21:15:14.445Z,98528.84
2022-10-01T21:18:44.241Z,98513.78
2022-10-01T21:21:52.317Z,98538.97
2022-10-01T21:25:10.454Z,98546.31
2022-10-01T21:28:06.224Z,98549.16
2022-10-01T21:31:08.158Z,98543.03
2022-10-01T21:34:20.493Z,98560.91
2022-10-01T21:37:33.299Z,98572.00
2022-10-01T21:40:34.524Z,98570.63
2022-10-01T21:43:59.897Z,98570.38
2022-10-01T21:47:05.382Z,98571.53
2022-10-01T21:50:27.808Z,98571.41
2022-10-01T21:53:20.500Z,98581.59
2022-10-01T21:57:05.079Z,98594.69
2022-10-01T22:00:11.913Z,98597.00
2022-10-01T22:03:10.441Z,98604.00
2022-10-01T22:06:03.228Z,98605.16
2022-10-01T22:08:57.023Z,98610.09
2022-10-01T22:11:50.957Z,98605.72
2022-10-01T22:14:41.321Z,98603.53
2022-10-01T22:17:33.570Z,98614.50
2022-10-01T22:20:26.869Z,98619.69
2022-10-01T22:23:20.615Z,98634.69
2022-10-01T22:26:18.059Z,98634.09
2022-10-01T22:29:10.860Z,98634.41
2022-10-01T22:32:02.892Z,98644.38
2022-10-01T22:35:01.079Z,98649.72
2022-10-01T22:38:02.776Z,98650.09
2022-10-01T22:41:22.265Z,98649.28
2022-10-01T22:44:18.719Z,98657.31
2022-10-01T22:47:25.659Z,98656.75
2022-10-01T22:50:27.175Z,98662.94
2022-10-01T22:53:40.490Z,98666.13
2022-10-01T22:56:43.938Z,98672.47
2022-10-01T23:00:01.788Z,98672.19
2022-10-01T23:02:59.021Z,98680.38
2022-10-01T23:06:13.062Z,98675.44
2022-10-01T23:09:18.362Z,98669.72
2022-10-01T23:12:15.171Z,98675.47
2022-10-01T23:15:11.072Z,98681.09
2022-10-01T23:18:00.530Z,98682.25
2022-10-01T23:21:09.785Z,98670.81
2022-10-01T23:24:04.883Z,98690.19
2022-10-01T23:27:19.280Z,98691.75
2022-10-01T23:30:15.346Z,98704.97
2022-10-01T23:33:20.240Z,98706.66
2022-10-01T23:36:19.129Z,98702.84
2022-10-01T23:39:24.459Z,98700.16
2022-10-01T23:42:24.041Z,98700.03
2022-10-01T23:45:26.192Z,98700.47
2022-10-01T23:48:40.879Z,98710.56
2022-10-01T23:51:38.777Z,98722.22
2022-10-01T23:54:32.960Z,98715.19
2022-10-01T23:57:31.717Z,98730.09
